Terminal Aerodrome Forecast
Issued by NWS

Home | Current Version | Previous Version | Text Only | Print | Product List | Glossary On
Versions: 1 2 3 4 5 6 7 8 9 10 11 12 13 14 15 16 17 18 19 20 21 22 23 24 25 26
000
FTUS45 KGJT 201120
TAFTEX
TAF
KTEX 201120Z 2012/2112 14003KT P6SM SKC
     FM201600 VRB03KT P6SM FEW100
     FM202100 24009G15KT P6SM VCTS SCT090CB BKN150
     FM210200 14005KT P6SM VCSH SCT090 BKN150
     FM210600 13008KT P6SM VCSH BKN080=

USA.gov is the U.S. government's official web portal to all federal, state and local government web resources and services.